Time;durP1;ratioP1;P1;durP2;ratioP2;P2;SDS_P1;SDS_P2;PMS_P1;PMS_P2;Temp;Humidity;BMP_temperature;BMP_pressure;BME280_temperature;BME280_humidity;BME280_pressure;Samples;Min_cycle;Max_cycle;Signal;HPM_P1;HPM_P2
2023/04/02 00:00:09;;;;;;;9.07;8.43;;;8.30;99.90;;;;;;5053661;28;20187;-67
2023/04/02 00:02:45;;;;;;;8.10;7.43;;;8.40;99.90;;;;;;5071772;28;20166;-66
2023/04/02 00:05:19;;;;;;;8.63;7.83;;;8.30;99.90;;;;;;5051950;28;20254;-66
2023/04/02 00:07:50;;;;;;;9.10;8.40;;;8.40;99.90;;;;;;5053762;28;20167;-67
2023/04/02 00:10:32;;;;;;;8.10;7.50;;;8.40;99.90;;;;;;5071985;28;20540;-67
2023/04/02 00:13:10;;;;;;;8.27;7.47;;;8.50;99.90;;;;;;5069313;28;20272;-67
2023/04/02 00:15:38;;;;;;;8.10;7.47;;;8.50;99.90;;;;;;5052257;28;20166;-67
2023/04/02 00:18:04;;;;;;;7.83;7.13;;;8.40;99.90;;;;;;5069596;28;20533;-66
2023/04/02 00:20:35;;;;;;;8.13;7.43;;;8.40;99.90;;;;;;5070745;28;20268;-66
2023/04/02 00:23:02;;;;;;;6.53;6.13;;;8.40;99.90;;;;;;5055656;28;20289;-66
2023/04/02 00:25:32;;;;;;;6.77;6.30;;;8.30;99.90;;;;;;5052108;28;20675;-66
2023/04/02 00:27:58;;;;;;;5.83;5.53;;;8.30;99.90;;;;;;5067438;28;20186;-66
2023/04/02 00:30:24;;;;;;;6.73;6.33;;;8.20;99.90;;;;;;5070816;28;20198;-66
2023/04/02 00:32:50;;;;;;;7.30;6.80;;;8.20;99.90;;;;;;5071966;28;20562;-66
2023/04/02 00:35:27;;;;;;;7.93;7.43;;;8.20;99.90;;;;;;5072170;28;20178;-66
2023/04/02 00:37:54;;;;;;;7.77;6.50;;;8.20;99.90;;;;;;5052048;28;20228;-66
2023/04/02 00:40:28;;;;;;;8.60;7.90;;;8.30;99.90;;;;;;5065184;28;20228;-67
2023/04/02 00:42:56;;;;;;;7.87;7.37;;;8.30;99.90;;;;;;5051897;28;20171;-66
2023/04/02 00:45:31;;;;;;;8.33;7.67;;;8.20;99.90;;;;;;5050305;28;20182;-66
2023/04/02 00:47:59;;;;;;;8.30;7.70;;;8.30;99.90;;;;;;5051815;28;20162;-66
2023/04/02 00:50:40;;;;;;;8.40;7.53;;;8.30;99.90;;;;;;5051764;28;20194;-66
2023/04/02 00:53:16;;;;;;;7.57;6.97;;;8.20;99.90;;;;;;5051751;28;20245;-66
2023/04/02 00:55:43;;;;;;;7.53;6.93;;;8.20;99.90;;;;;;5070233;28;20181;-66
2023/04/02 00:58:28;;;;;;;7.00;6.60;;;8.10;99.90;;;;;;5070831;28;20260;-66
2023/04/02 01:00:55;;;;;;;7.07;6.57;;;8.00;99.90;;;;;;5071271;28;20289;-66
2023/04/02 01:03:27;;;;;;;7.17;6.67;;;8.00;99.90;;;;;;5072062;28;20640;-66
2023/04/02 01:06:14;;;;;;;6.50;6.20;;;8.00;99.90;;;;;;5071686;28;20930;-66
2023/04/02 01:09:03;;;;;;;6.50;6.10;;;8.00;99.90;;;;;;5066242;28;20248;-66
2023/04/02 01:11:38;;;;;;;6.90;6.50;;;7.90;99.90;;;;;;5051210;28;20707;-66
2023/04/02 01:14:18;;;;;;;6.77;6.37;;;7.90;99.90;;;;;;5057711;28;20186;-66
2023/04/02 01:16:59;;;;;;;6.70;6.30;;;7.90;99.90;;;;;;5069994;28;20173;-66
2023/04/02 01:20:21;;;;;;;7.37;6.87;;;7.90;99.90;;;;;;5062308;28;20182;-66
2023/04/02 01:23:10;;;;;;;7.43;6.93;;;7.80;99.90;;;;;;5069255;28;20277;-66
2023/04/02 01:25:58;;;;;;;7.43;7.03;;;7.80;99.90;;;;;;5086262;28;20181;-66
2023/04/02 01:28:42;;;;;;;7.27;6.77;;;7.80;99.90;;;;;;5053453;28;20217;-66
2023/04/02 01:31:09;;;;;;;7.17;6.77;;;7.80;99.90;;;;;;5071235;28;20198;-66
2023/04/02 01:33:35;;;;;;;7.53;6.87;;;7.80;99.90;;;;;;5071182;28;20640;-66
2023/04/02 01:36:30;;;;;;;7.70;7.10;;;7.70;99.90;;;;;;5051585;28;20177;-65
2023/04/02 01:39:11;;;;;;;7.97;7.57;;;7.80;99.90;;;;;;5050585;28;20274;-65
2023/04/02 01:41:49;;;;;;;7.47;7.07;;;7.80;99.90;;;;;;5051139;28;20198;-67
2023/04/02 01:44:26;;;;;;;7.37;6.87;;;7.80;99.90;;;;;;5055198;28;20706;-65
2023/04/02 01:46:52;;;;;;;7.47;7.07;;;7.70;99.90;;;;;;5071169;28;20639;-66
2023/04/02 01:49:21;;;;;;;7.00;6.60;;;7.80;99.90;;;;;;5069415;28;20167;-66
2023/04/02 01:51:52;;;;;;;8.43;7.87;;;7.80;99.90;;;;;;5070983;28;20630;-65
2023/04/02 01:54:20;;;;;;;8.10;7.53;;;7.80;99.90;;;;;;5067500;28;20213;-66
2023/04/02 01:56:46;;;;;;;8.40;7.87;;;7.80;99.90;;;;;;5051141;28;20262;-66
2023/04/02 01:59:15;;;;;;;7.57;7.17;;;7.80;99.90;;;;;;5052810;28;20167;-65
2023/04/02 02:01:43;;;;;;;6.97;6.57;;;7.80;99.90;;;;;;5070879;28;20214;-66
2023/04/02 02:04:13;;;;;;;7.47;6.97;;;7.70;99.90;;;;;;5069731;28;20261;-66
2023/04/02 02:06:39;;;;;;;7.10;6.77;;;7.70;99.90;;;;;;5051030;28;20179;-67
2023/04/02 02:09:07;;;;;;;7.60;7.20;;;7.60;99.90;;;;;;5051039;28;20171;-66
2023/04/02 02:11:35;;;;;;;7.83;7.33;;;7.60;99.90;;;;;;5070736;28;20252;-66
2023/04/02 02:14:12;;;;;;;8.13;7.73;;;7.50;99.90;;;;;;5070962;28;20174;-66
2023/04/02 02:16:40;;;;;;;7.00;6.70;;;7.50;99.90;;;;;;5051269;28;20175;-66
2023/04/02 02:19:16;;;;;;;7.77;7.37;;;7.50;99.90;;;;;;5050790;28;20178;-66
2023/04/02 02:22:02;;;;;;;7.30;6.90;;;7.50;99.90;;;;;;5050405;28;20210;-65
2023/04/02 02:24:30;;;;;;;8.07;7.57;;;7.50;99.90;;;;;;5050898;28;20167;-65
2023/04/02 02:27:20;;;;;;;7.80;7.40;;;7.50;99.90;;;;;;5050709;28;20163;-66
2023/04/02 02:29:50;;;;;;;7.37;6.97;;;7.50;99.90;;;;;;5052589;28;20222;-66
2023/04/02 02:32:18;;;;;;;8.60;7.90;;;7.60;99.90;;;;;;5055864;28;20204;-66
2023/04/02 02:34:57;;;;;;;8.50;7.90;;;7.60;99.90;;;;;;5074274;28;20231;-66
2023/04/02 02:37:28;;;;;;;8.23;7.67;;;7.60;99.90;;;;;;5071943;28;20538;-66
2023/04/02 02:39:57;;;;;;;7.77;7.27;;;7.60;99.90;;;;;;5053736;28;20678;-66
2023/04/02 02:42:30;;;;;;;8.33;7.77;;;7.50;99.90;;;;;;5054309;28;20218;-66
2023/04/02 02:44:58;;;;;;;7.17;6.60;;;7.50;99.90;;;;;;5054251;28;20206;-66
2023/04/02 02:47:34;;;;;;;7.67;7.23;;;7.50;99.90;;;;;;5054682;28;20543;-66
2023/04/02 02:50:03;;;;;;;7.77;7.27;;;7.50;99.90;;;;;;5058106;28;20202;-65
2023/04/02 02:52:35;;;;;;;7.40;6.90;;;7.50;99.90;;;;;;5073976;28;20177;-66
2023/04/02 02:55:14;;;;;;;8.33;7.73;;;7.50;99.90;;;;;;5069354;28;20657;-66
2023/04/02 02:57:47;;;;;;;9.43;8.53;;;7.50;99.90;;;;;;5053112;28;20167;-65
2023/04/02 03:00:15;;;;;;;10.33;8.93;;;7.50;99.90;;;;;;5059339;28;20190;-66
2023/04/02 03:02:42;;;;;;;8.97;8.27;;;7.50;99.90;;;;;;5073765;28;20166;-66
2023/04/02 03:05:08;;;;;;;8.83;8.03;;;7.50;99.90;;;;;;5069515;28;20293;-66
2023/04/02 03:07:36;;;;;;;8.50;7.90;;;7.50;99.90;;;;;;5053882;28;20171;-66
2023/04/02 03:10:22;;;;;;;8.70;8.03;;;7.40;99.90;;;;;;5055692;28;20225;-66
2023/04/02 03:12:52;;;;;;;8.33;7.83;;;7.40;99.90;;;;;;5073615;28;20171;-66
2023/04/02 03:15:41;;;;;;;8.93;8.20;;;7.30;99.90;;;;;;5071934;28;20174;-66
2023/04/02 03:18:15;;;;;;;7.97;7.43;;;7.20;99.90;;;;;;5073500;28;20170;-65
2023/04/02 03:20:55;;;;;;;7.30;6.87;;;7.20;99.90;;;;;;5065483;28;20305;-66
2023/04/02 03:23:53;;;;;;;7.73;7.23;;;7.10;99.90;;;;;;5053562;28;20250;-66
2023/04/02 03:26:37;;;;;;;6.00;5.70;;;7.10;99.90;;;;;;5068296;28;20194;-66
2023/04/02 03:29:19;;;;;;;6.83;6.43;;;7.00;99.90;;;;;;5073178;28;20170;-65
2023/04/02 03:31:56;;;;;;;6.90;6.40;;;6.90;99.90;;;;;;5057939;28;20186;-66
2023/04/02 03:34:24;;;;;;;6.23;5.93;;;6.90;99.90;;;;;;5053321;28;20543;-66
2023/04/02 03:37:28;;;;;;;6.67;6.27;;;6.90;99.90;;;;;;5067864;28;20178;-66
2023/04/02 03:40:17;;;;;;;6.50;6.10;;;6.80;99.90;;;;;;5071835;28;20216;-66
2023/04/02 03:43:05;;;;;;;7.00;6.47;;;6.80;99.90;;;;;;5053202;28;20182;-66
2023/04/02 03:45:42;;;;;;;6.10;5.70;;;6.70;99.90;;;;;;5056106;28;20244;-66
2023/04/02 03:48:30;;;;;;;5.80;5.50;;;6.70;99.90;;;;;;5073146;28;20235;-65
2023/04/02 03:51:24;;;;;;;7.03;6.53;;;6.70;99.90;;;;;;5070677;28;20226;-66
2023/04/02 03:53:49;;;;;;;6.70;6.30;;;6.70;99.90;;;;;;5072641;28;20186;-66
2023/04/02 03:56:26;;;;;;;6.73;6.37;;;6.70;99.90;;;;;;5064512;28;20179;-66
2023/04/02 03:59:18;;;;;;;7.13;6.60;;;6.70;99.90;;;;;;5052773;28;20178;-66
2023/04/02 04:02:02;;;;;;;7.13;6.63;;;6.70;99.90;;;;;;5063558;28;20245;-66
2023/04/02 04:04:30;;;;;;;7.07;6.67;;;6.70;99.90;;;;;;5072741;28;20174;-66
2023/04/02 04:06:58;;;;;;;6.93;6.53;;;6.70;99.90;;;;;;5059649;28;20190;-66
2023/04/02 04:09:37;;;;;;;7.10;6.63;;;6.70;99.90;;;;;;5052336;28;20166;-66
2023/04/02 04:12:31;;;;;;;6.87;6.37;;;6.70;99.90;;;;;;5065368;28;20273;-65
2023/04/02 04:15:03;;;;;;;6.90;6.40;;;6.70;99.90;;;;;;5072408;28;20174;-65
2023/04/02 04:17:53;;;;;;;7.43;6.93;;;6.70;99.90;;;;;;5056269;28;20193;-65
2023/04/02 04:20:55;;;;;;;7.10;6.70;;;6.70;99.90;;;;;;5051673;28;20230;-65
2023/04/02 04:23:28;;;;;;;7.20;6.70;;;6.70;99.90;;;;;;5057800;28;20236;-65
2023/04/02 04:26:18;;;;;;;7.27;6.87;;;6.60;99.90;;;;;;5052300;28;20695;-65
2023/04/02 04:29:13;;;;;;;7.50;6.93;;;6.60;99.90;;;;;;5052359;28;20228;-65
2023/04/02 04:31:49;;;;;;;7.63;6.83;;;6.60;99.90;;;;;;5059081;28;20201;-65
2023/04/02 04:34:17;;;;;;;7.50;7.00;;;6.50;99.90;;;;;;5072108;28;20162;-65
2023/04/02 04:36:55;;;;;;;7.67;7.17;;;6.50;99.90;;;;;;5064555;28;20200;-65
2023/04/02 04:39:40;;;;;;;7.43;6.93;;;6.50;99.90;;;;;;5052030;28;20544;-65
2023/04/02 04:42:07;;;;;;;6.47;6.07;;;6.60;99.90;;;;;;5051943;28;20205;-65
2023/04/02 04:45:04;;;;;;;6.97;6.37;;;6.50;99.90;;;;;;5058870;28;20167;-65
2023/04/02 04:47:40;;;;;;;7.40;6.90;;;6.50;99.90;;;;;;5071202;28;20224;-65
2023/04/02 04:50:18;;;;;;;7.07;6.57;;;6.50;99.90;;;;;;5071479;28;20189;-65
2023/04/02 04:52:43;;;;;;;6.50;6.10;;;6.50;99.90;;;;;;5068032;28;20170;-65
2023/04/02 04:55:35;;;;;;;6.77;6.37;;;6.50;99.90;;;;;;5051718;28;20232;-65
2023/04/02 04:58:22;;;;;;;7.00;6.40;;;6.50;99.90;;;;;;5050538;28;20220;-65
2023/04/02 05:01:12;;;;;;;6.93;6.53;;;6.60;99.90;;;;;;5051303;28;20195;-65
2023/04/02 05:03:47;;;;;;;7.90;7.30;;;6.60;99.90;;;;;;5060218;28;20169;-65
2023/04/02 05:06:32;;;;;;;8.03;7.30;;;6.60;99.90;;;;;;5071685;28;20724;-65
2023/04/02 05:09:02;;;;;;;9.17;8.30;;;6.60;99.90;;;;;;5070928;28;20179;-65
2023/04/02 05:11:40;;;;;;;7.97;7.37;;;6.60;99.90;;;;;;5071100;28;20225;-65
2023/04/02 05:14:31;;;;;;;8.90;8.20;;;6.50;99.90;;;;;;5051593;28;20178;-65
2023/04/02 05:17:15;;;;;;;8.03;7.33;;;6.40;99.90;;;;;;5054593;28;20174;-65
2023/04/02 05:19:43;;;;;;;7.77;7.27;;;6.40;99.90;;;;;;5070807;28;20197;-65
2023/04/02 05:22:34;;;;;;;8.97;8.20;;;6.30;99.90;;;;;;5066829;28;20252;-65
2023/04/02 05:25:19;;;;;;;7.90;7.40;;;6.30;99.90;;;;;;5051466;28;20225;-65
2023/04/02 05:28:12;;;;;;;8.20;7.70;;;6.20;99.90;;;;;;5055142;28;20179;-65
2023/04/02 05:30:52;;;;;;;7.93;7.53;;;6.30;99.90;;;;;;5067138;28;20205;-65
2023/04/02 05:33:21;;;;;;;8.23;7.60;;;6.30;99.90;;;;;;5071365;28;20169;-65
2023/04/02 05:35:50;;;;;;;8.03;7.43;;;6.30;99.90;;;;;;5070968;28;20170;-65
2023/04/02 05:38:26;;;;;;;7.53;6.93;;;6.30;99.90;;;;;;5070582;28;20240;-65
2023/04/02 05:41:02;;;;;;;8.37;7.77;;;6.30;99.90;;;;;;5070842;28;20189;-65
2023/04/02 05:43:31;;;;;;;8.47;7.77;;;6.30;99.90;;;;;;5059157;28;20171;-65
2023/04/02 05:46:02;;;;;;;7.50;7.10;;;6.30;99.90;;;;;;5049506;28;20245;-66
2023/04/02 05:48:38;;;;;;;8.10;7.60;;;6.30;99.90;;;;;;5063934;28;20178;-66
2023/04/02 05:51:10;;;;;;;6.97;6.57;;;6.30;99.90;;;;;;5070646;28;20204;-66
2023/04/02 05:53:36;;;;;;;7.77;7.17;;;6.30;99.90;;;;;;5059130;28;20268;-65
2023/04/02 05:56:19;;;;;;;8.53;7.87;;;6.30;99.90;;;;;;5050891;28;20171;-65
2023/04/02 05:59:07;;;;;;;8.57;7.83;;;6.20;99.90;;;;;;5061901;28;20229;-66
2023/04/02 06:01:45;;;;;;;8.60;7.90;;;6.10;99.90;;;;;;5070789;28;20206;-66
2023/04/02 06:04:27;;;;;;;8.00;7.50;;;6.10;99.90;;;;;;5057293;28;20604;-66
2023/04/02 06:07:37;;;;;;;9.73;8.93;;;6.00;99.90;;;;;;5054825;28;20171;-66
2023/04/02 06:10:09;;;;;;;8.23;7.63;;;6.00;99.90;;;;;;5057664;28;20292;-66
2023/04/02 06:12:41;;;;;;;9.97;9.20;;;6.00;99.90;;;;;;5055245;28;20167;-67
2023/04/02 06:15:15;;;;;;;8.33;7.63;;;5.90;99.90;;;;;;5073856;28;20244;-66
2023/04/02 06:18:04;;;;;;;8.20;7.60;;;5.90;99.90;;;;;;5073357;28;20171;-65
2023/04/02 06:20:30;;;;;;;9.30;8.60;;;5.90;99.90;;;;;;5071416;28;20217;-66
2023/04/02 06:23:01;;;;;;;10.07;9.37;;;5.90;99.90;;;;;;5073526;28;20159;-66
2023/04/02 06:25:35;;;;;;;8.77;8.00;;;5.80;99.90;;;;;;5074669;28;20166;-66
2023/04/02 06:28:05;;;;;;;8.50;7.87;;;5.80;99.90;;;;;;5072374;28;20170;-66
2023/04/02 06:30:36;;;;;;;8.70;8.00;;;5.70;99.90;;;;;;5073857;28;20591;-66
2023/04/02 06:33:03;;;;;;;8.53;7.73;;;5.70;99.90;;;;;;5070971;28;20174;-66
2023/04/02 06:35:29;;;;;;;9.10;8.40;;;5.70;99.90;;;;;;5052985;28;20581;-66
2023/04/02 06:37:58;;;;;;;8.43;7.73;;;5.60;99.90;;;;;;5053796;28;20209;-66
2023/04/02 06:40:26;;;;;;;9.50;8.70;;;5.70;99.90;;;;;;5054906;28;20285;-66
2023/04/02 06:42:58;;;;;;;10.20;9.30;;;5.60;99.90;;;;;;5073923;28;20165;-66
2023/04/02 06:45:28;;;;;;;9.43;8.67;;;5.70;99.90;;;;;;5071702;28;20197;-66
2023/04/02 06:47:58;;;;;;;8.80;8.00;;;5.70;99.90;;;;;;5052581;28;20618;-66
2023/04/02 06:50:45;;;;;;;9.00;8.37;;;5.70;99.90;;;;;;5036885;28;20198;-66
2023/04/02 06:53:26;;;;;;;9.43;8.53;;;5.80;99.90;;;;;;5077113;28;20532;-66
2023/04/02 06:55:56;;;;;;;12.13;8.80;;;5.70;99.90;;;;;;5068411;28;20178;-66
2023/04/02 06:58:21;;;;;;;9.20;8.33;;;5.70;99.90;;;;;;5054009;28;20167;-66
2023/04/02 07:00:48;;;;;;;8.87;8.10;;;5.70;99.90;;;;;;5056105;28;20208;-66
2023/04/02 07:03:28;;;;;;;7.70;7.20;;;5.60;99.90;;;;;;5073722;28;20170;-66
2023/04/02 07:05:55;;;;;;;8.67;7.97;;;5.60;99.90;;;;;;5069912;28;20185;-66
2023/04/02 07:08:21;;;;;;;8.00;7.50;;;5.60;99.90;;;;;;5053447;28;20198;-66
2023/04/02 07:10:46;;;;;;;11.77;7.97;;;5.50;99.90;;;;;;5054714;28;20225;-66
2023/04/02 07:13:21;;;;;;;8.63;7.83;;;5.50;99.90;;;;;;5073565;28;20166;-67
2023/04/02 07:15:51;;;;;;;8.03;7.23;;;5.50;99.90;;;;;;5071963;28;20193;-66
2023/04/02 07:18:22;;;;;;;8.90;7.90;;;5.50;99.90;;;;;;5053463;28;20179;-66
2023/04/02 07:20:48;;;;;;;8.77;7.97;;;5.50;99.90;;;;;;5053260;28;20214;-66
2023/04/02 07:23:13;;;;;;;8.70;7.90;;;5.60;99.90;;;;;;5072991;28;20358;-66
2023/04/02 07:25:39;;;;;;;9.10;8.33;;;5.60;99.90;;;;;;5073677;28;20166;-65
2023/04/02 07:28:05;;;;;;;9.00;8.10;;;5.60;99.90;;;;;;5054938;28;20210;-66
2023/04/02 07:30:30;;;;;;;8.83;8.07;;;5.70;99.90;;;;;;5053431;28;20289;-66
2023/04/02 07:32:56;;;;;;;10.00;7.80;;;5.70;99.90;;;;;;5068209;28;20174;-66
2023/04/02 07:35:22;;;;;;;8.13;7.60;;;5.70;99.90;;;;;;5051588;28;20214;-66
2023/04/02 07:37:48;;;;;;;8.80;8.10;;;5.70;99.90;;;;;;5063537;28;20178;-66
2023/04/02 07:40:19;;;;;;;8.67;7.93;;;5.70;99.90;;;;;;5066249;28;20197;-66
2023/04/02 07:42:45;;;;;;;9.27;8.47;;;5.80;99.90;;;;;;5072931;28;20584;-65
2023/04/02 07:45:11;;;;;;;8.90;8.30;;;5.90;99.90;;;;;;5060922;28;20284;-65
2023/04/02 07:47:37;;;;;;;8.50;7.77;;;6.00;99.90;;;;;;5052899;28;20269;-66
2023/04/02 07:50:03;;;;;;;8.80;8.03;;;6.00;99.90;;;;;;5063063;28;20247;-65
2023/04/02 07:52:30;;;;;;;8.57;8.07;;;6.00;99.90;;;;;;5065864;28;20175;-65
2023/04/02 07:54:55;;;;;;;8.63;7.83;;;6.00;99.90;;;;;;5052725;28;20175;-65
2023/04/02 07:57:21;;;;;;;8.77;8.13;;;6.00;99.90;;;;;;5056760;28;20185;-65
2023/04/02 07:59:47;;;;;;;8.43;7.80;;;6.10;99.90;;;;;;5072277;28;20194;-65
2023/04/02 08:02:22;;;;;;;8.80;8.07;;;6.10;99.90;;;;;;5063837;28;20202;-66
2023/04/02 08:04:50;;;;;;;9.40;8.60;;;6.10;99.90;;;;;;5052623;28;20178;-66
2023/04/02 08:07:15;;;;;;;8.50;7.80;;;6.00;99.90;;;;;;5060527;28;20170;-66
2023/04/02 08:09:41;;;;;;;8.20;7.40;;;6.00;99.90;;;;;;5072294;28;20679;-66
2023/04/02 08:12:08;;;;;;;9.07;8.27;;;5.90;99.90;;;;;;5070589;28;20667;-66
2023/04/02 08:14:33;;;;;;;8.07;7.43;;;5.90;99.90;;;;;;5072880;28;20174;-65
2023/04/02 08:16:59;;;;;;;7.87;7.37;;;5.90;99.90;;;;;;5067876;28;20175;-66
2023/04/02 08:19:25;;;;;;;8.23;7.53;;;6.00;99.90;;;;;;5052107;28;20178;-66
2023/04/02 08:21:51;;;;;;;8.53;7.93;;;5.90;99.90;;;;;;5052915;28;20694;-66
2023/04/02 08:24:18;;;;;;;8.60;8.00;;;6.00;99.90;;;;;;5052414;28;20214;-66
2023/04/02 08:26:44;;;;;;;8.47;7.77;;;6.00;99.90;;;;;;5052134;28;20199;-66
2023/04/02 08:29:10;;;;;;;8.93;8.23;;;6.00;99.90;;;;;;5052091;28;20648;-66
2023/04/02 08:31:36;;;;;;;7.80;7.20;;;6.10;99.90;;;;;;5052005;28;20244;-65
2023/04/02 08:34:02;;;;;;;9.87;8.97;;;6.10;99.90;;;;;;5071107;28;20186;-65
2023/04/02 08:36:36;;;;;;;7.90;7.33;;;6.10;99.90;;;;;;5060635;28;20183;-66
2023/04/02 08:39:03;;;;;;;8.13;7.53;;;6.20;99.90;;;;;;5068102;28;20173;-65
2023/04/02 08:41:39;;;;;;;7.73;7.17;;;6.20;99.90;;;;;;5067018;28;20198;-65
2023/04/02 08:44:46;;;;;;;7.50;6.90;;;6.20;99.90;;;;;;5051669;28;20570;-65
2023/04/02 08:47:15;;;;;;;10.67;7.67;;;6.20;99.90;;;;;;5066983;28;20239;-65
2023/04/02 08:49:49;;;;;;;8.57;7.77;;;6.10;99.90;;;;;;5068072;28;20245;-66
2023/04/02 08:52:36;;;;;;;9.07;8.20;;;6.10;99.90;;;;;;5052015;28;20171;-65
2023/04/02 08:55:03;;;;;;;7.30;6.93;;;6.20;99.90;;;;;;5051920;28;20178;-65
2023/04/02 08:57:29;;;;;;;8.40;7.83;;;6.20;99.90;;;;;;5051718;28;20174;-65
2023/04/02 09:00:30;;;;;;;8.00;7.33;;;6.20;99.90;;;;;;5060651;28;20573;-66
2023/04/02 09:03:12;;;;;;;7.97;7.37;;;6.20;99.90;;;;;;5071176;28;20265;-66
2023/04/02 09:05:41;;;;;;;8.57;7.90;;;6.10;99.90;;;;;;5055635;28;20178;-65
2023/04/02 09:08:26;;;;;;;8.87;7.90;;;6.10;99.90;;;;;;5051395;28;20641;-65
2023/04/02 09:11:07;;;;;;;7.30;6.67;;;6.20;99.90;;;;;;5067833;28;20284;-65
2023/04/02 09:13:36;;;;;;;8.53;7.90;;;6.10;99.90;;;;;;5071638;28;20659;-66
2023/04/02 09:16:06;;;;;;;7.40;6.87;;;6.20;99.90;;;;;;5053059;28;20668;-65
2023/04/02 09:18:32;;;;;;;7.53;7.00;;;6.20;99.90;;;;;;5051537;28;20610;-65
2023/04/02 09:21:00;;;;;;;7.87;7.27;;;6.20;99.90;;;;;;5051784;28;20208;-65
2023/04/02 09:23:26;;;;;;;9.07;8.37;;;6.10;99.90;;;;;;5052914;28;20523;-65
2023/04/02 09:25:53;;;;;;;7.90;7.40;;;6.10;99.90;;;;;;5062841;28;20174;-65
2023/04/02 09:28:20;;;;;;;7.77;7.23;;;6.10;99.90;;;;;;5071545;28;20244;-65
2023/04/02 09:31:04;;;;;;;8.60;7.57;;;6.20;99.90;;;;;;5057263;28;20199;-66
2023/04/02 09:33:41;;;;;;;7.23;6.73;;;6.20;99.90;;;;;;5050677;28;20640;-65
2023/04/02 09:36:31;;;;;;;7.23;6.83;;;6.20;99.90;;;;;;5059862;28;20182;-65
2023/04/02 09:39:15;;;;;;;7.03;6.57;;;6.20;99.90;;;;;;5053986;28;20198;-66
2023/04/02 09:41:41;;;;;;;8.53;7.90;;;6.30;99.90;;;;;;5055288;28;20202;-64
2023/04/02 09:44:29;;;;;;;7.03;6.53;;;6.30;99.90;;;;;;5074651;28;20178;-65
2023/04/02 09:47:04;;;;;;;9.00;6.77;;;6.40;99.90;;;;;;5073205;28;20177;-66
2023/04/02 09:49:33;;;;;;;12.33;7.73;;;6.50;99.90;;;;;;5054786;28;20209;-66
2023/04/02 09:52:18;;;;;;;8.63;7.87;;;6.50;99.90;;;;;;5056123;28;20222;-65
2023/04/02 09:54:44;;;;;;;7.83;7.30;;;6.50;99.90;;;;;;5075210;28;20541;-65
2023/04/02 09:57:26;;;;;;;7.93;7.33;;;6.50;99.90;;;;;;5058678;28;20699;-65
2023/04/02 10:00:18;;;;;;;7.43;6.93;;;6.60;99.90;;;;;;5054615;28;20186;-65
2023/04/02 10:02:57;;;;;;;8.40;7.30;;;6.70;99.90;;;;;;5074855;28;20186;-65
2023/04/02 10:05:23;;;;;;;11.90;7.70;;;6.70;99.90;;;;;;5074751;28;20257;-65
2023/04/02 10:07:54;;;;;;;8.10;7.37;;;6.70;99.90;;;;;;5054663;28;20171;-65
2023/04/02 10:10:50;;;;;;;7.90;6.87;;;6.70;99.90;;;;;;5054619;28;20189;-65
2023/04/02 10:13:25;;;;;;;7.17;6.67;;;6.70;99.90;;;;;;5054887;28;20241;-65
2023/04/02 10:16:32;;;;;;;8.77;7.00;;;6.70;99.90;;;;;;5056938;28;20178;-65
2023/04/02 10:19:06;;;;;;;6.87;6.47;;;6.70;99.90;;;;;;5073392;28;20190;-65
2023/04/02 10:21:36;;;;;;;7.20;6.70;;;6.80;99.90;;;;;;5066641;28;20622;-65
2023/04/02 10:24:04;;;;;;;7.30;6.90;;;6.80;99.90;;;;;;5054384;28;20203;-65
2023/04/02 10:26:56;;;;;;;7.60;7.00;;;6.90;99.90;;;;;;5060902;28;20181;-65
2023/04/02 10:29:57;;;;;;;9.80;7.87;;;7.00;99.90;;;;;;5074248;28;20166;-64
2023/04/02 10:32:33;;;;;;;6.93;6.53;;;7.00;99.90;;;;;;5061566;28;20269;-65
2023/04/02 10:35:03;;;;;;;6.83;6.43;;;7.00;99.90;;;;;;5055031;28;20739;-64
2023/04/02 10:37:44;;;;;;;7.33;6.73;;;6.90;99.90;;;;;;5054603;28;20182;-64
2023/04/02 10:40:23;;;;;;;7.40;7.00;;;6.90;99.90;;;;;;5061614;28;20197;-64
2023/04/02 10:43:22;;;;;;;7.40;6.87;;;7.00;99.90;;;;;;5057867;28;20213;-65
2023/04/02 10:46:01;;;;;;;7.97;7.20;;;7.10;99.90;;;;;;5073127;28;20679;-65
2023/04/02 10:48:48;;;;;;;7.63;7.13;;;7.20;99.90;;;;;;5068004;28;20537;-64
2023/04/02 10:51:32;;;;;;;7.63;6.87;;;7.40;99.90;;;;;;5072945;28;20610;-65
2023/04/02 10:54:20;;;;;;;7.83;7.23;;;7.50;99.90;;;;;;5073752;28;20178;-65
2023/04/02 10:56:46;;;;;;;7.57;6.90;;;7.50;99.90;;;;;;5065794;28;20201;-65
2023/04/02 10:59:37;;;;;;;8.13;7.43;;;7.60;99.90;;;;;;5053575;28;20163;-66
2023/04/02 11:02:16;;;;;;;7.77;7.17;;;7.60;99.90;;;;;;5069863;28;20847;-66
2023/04/02 11:04:44;;;;;;;7.03;6.57;;;7.70;99.90;;;;;;5073905;28;20170;-65
2023/04/02 11:07:19;;;;;;;7.43;6.80;;;7.70;99.90;;;;;;5064903;28;20644;-66
2023/04/02 11:09:49;;;;;;;7.20;6.80;;;7.70;99.90;;;;;;5053259;28;20198;-65
2023/04/02 11:12:38;;;;;;;7.60;7.10;;;7.70;99.90;;;;;;5062109;28;20179;-66
2023/04/02 11:15:15;;;;;;;6.83;6.33;;;7.80;99.90;;;;;;5066024;28;20209;-66
2023/04/02 11:17:42;;;;;;;6.87;6.30;;;7.80;99.90;;;;;;5053715;28;20175;-66
2023/04/02 11:20:42;;;;;;;7.47;6.90;;;7.90;99.90;;;;;;5059958;28;20206;-65
2023/04/02 11:23:16;;;;;;;7.20;6.70;;;7.90;99.90;;;;;;5060894;28;20544;-65
2023/04/02 11:25:42;;;;;;;7.27;6.23;;;7.90;99.90;;;;;;5053349;28;20170;-66
2023/04/02 11:28:30;;;;;;;7.70;7.13;;;8.10;99.90;;;;;;5058219;28;20202;-65
2023/04/02 11:30:56;;;;;;;7.53;7.03;;;8.20;99.90;;;;;;5052842;28;20194;-66
2023/04/02 11:33:40;;;;;;;7.07;6.67;;;8.20;99.90;;;;;;5065199;28;20532;-65
2023/04/02 11:36:45;;;;;;;7.60;6.87;;;8.00;99.90;;;;;;5073073;28;20185;-66
2023/04/02 11:39:11;;;;;;;10.53;8.37;;;8.00;99.90;;;;;;5058685;28;20194;-65
2023/04/02 11:42:24;;;;;;;6.83;6.40;;;8.00;99.90;;;;;;5052837;28;20206;-66
2023/04/02 11:44:52;;;;;;;6.90;6.40;;;8.00;99.90;;;;;;5052328;28;20667;-65
2023/04/02 11:47:17;;;;;;;7.03;6.63;;;8.00;99.90;;;;;;5053224;28;20194;-65
2023/04/02 11:49:56;;;;;;;6.83;6.43;;;8.00;99.90;;;;;;5071904;28;20714;-66
2023/04/02 11:52:50;;;;;;;7.03;6.57;;;8.10;99.90;;;;;;5071621;28;20170;-66
2023/04/02 11:55:31;;;;;;;6.90;6.40;;;8.10;99.90;;;;;;5052874;28;20178;-66
2023/04/02 11:58:34;;;;;;;7.33;6.20;;;8.20;99.90;;;;;;5058294;28;20269;-64
2023/04/02 12:01:18;;;;;;;6.90;6.40;;;8.30;99.90;;;;;;5070795;28;20736;-66
2023/04/02 12:03:52;;;;;;;9.87;6.87;;;8.20;99.90;;;;;;5059866;28;20178;-65
2023/04/02 12:06:28;;;;;;;7.50;6.83;;;8.20;99.90;;;;;;5052432;28;20175;-65
2023/04/02 12:09:19;;;;;;;6.53;6.13;;;8.20;99.90;;;;;;5053605;28;20511;-65
2023/04/02 12:11:46;;;;;;;6.67;6.13;;;8.30;99.90;;;;;;5052673;28;20179;-65
2023/04/02 12:14:34;;;;;;;7.57;6.83;;;8.40;99.90;;;;;;5066821;28;20262;-65
2023/04/02 12:17:00;;;;;;;7.30;6.70;;;8.40;99.90;;;;;;5072322;28;20176;-64
2023/04/02 12:19:29;;;;;;;11.73;7.53;;;8.50;99.90;;;;;;5070537;28;20174;-66
2023/04/02 12:21:55;;;;;;;6.57;6.07;;;8.60;99.90;;;;;;5071993;28;20198;-65
2023/04/02 12:24:23;;;;;;;6.33;5.73;;;8.60;99.90;;;;;;5053444;28;20182;-65
2023/04/02 12:27:05;;;;;;;6.87;6.37;;;8.60;99.90;;;;;;5052199;28;20171;-66
2023/04/02 12:29:32;;;;;;;6.00;5.63;;;8.60;99.90;;;;;;5051795;28;20580;-66
2023/04/02 12:31:59;;;;;;;7.03;6.53;;;8.70;99.90;;;;;;5062700;28;20174;-65
2023/04/02 12:34:27;;;;;;;7.00;6.60;;;8.70;99.90;;;;;;5071922;28;20216;-66
2023/04/02 12:36:54;;;;;;;6.80;6.30;;;8.80;99.90;;;;;;5061730;28;20181;-66
2023/04/02 12:39:21;;;;;;;6.80;6.13;;;9.00;99.90;;;;;;5052248;28;20589;-64
2023/04/02 12:41:46;;;;;;;9.17;5.83;;;9.10;99.90;;;;;;5071571;28;20198;-65
2023/04/02 12:44:18;;;;;;;6.37;5.97;;;9.10;99.90;;;;;;5070926;28;20174;-64
2023/04/02 12:46:45;;;;;;;6.60;6.00;;;9.00;99.90;;;;;;5051737;28;20568;-65
2023/04/02 12:49:20;;;;;;;6.43;6.03;;;8.90;99.90;;;;;;5051414;28;20178;-65
2023/04/02 12:51:47;;;;;;;6.60;6.13;;;8.80;99.90;;;;;;5066610;28;20186;-65
2023/04/02 12:54:16;;;;;;;6.57;6.10;;;8.80;99.90;;;;;;5051645;28;20182;-65
2023/04/02 12:56:42;;;;;;;7.27;6.63;;;8.80;99.90;;;;;;5070208;28;20704;-65
2023/04/02 12:59:35;;;;;;;6.70;6.30;;;8.70;99.90;;;;;;5065803;28;20183;-64
2023/04/02 13:02:15;;;;;;;6.60;6.20;;;8.60;99.90;;;;;;5051352;28;20206;-64
2023/04/02 13:04:51;;;;;;;6.50;6.20;;;8.60;99.90;;;;;;5051940;28;20693;-65
2023/04/02 13:07:19;;;;;;;6.03;5.73;;;8.60;99.90;;;;;;5051664;28;20636;-65
2023/04/02 13:09:59;;;;;;;6.43;6.03;;;8.60;99.90;;;;;;5060469;28;20198;-65
2023/04/02 13:12:45;;;;;;;6.30;5.87;;;8.60;99.90;;;;;;5071203;28;20670;-65
2023/04/02 13:15:30;;;;;;;8.10;7.03;;;8.50;99.90;;;;;;5058264;28;20195;-64
2023/04/02 13:18:11;;;;;;;6.73;6.27;;;8.40;99.90;;;;;;5051515;28;20182;-68
2023/04/02 13:20:39;;;;;;;7.97;7.17;;;8.40;99.90;;;;;;5051729;28;20737;-65
2023/04/02 13:23:27;;;;;;;7.80;7.30;;;8.40;99.90;;;;;;5051154;28;20272;-65
2023/04/02 13:25:54;;;;;;;6.67;6.17;;;8.40;99.90;;;;;;5052205;28;20672;-65
2023/04/02 13:28:20;;;;;;;6.60;6.30;;;8.40;99.90;;;;;;5051371;28;20739;-65
2023/04/02 13:30:46;;;;;;;8.47;6.57;;;8.40;99.90;;;;;;5066164;28;20206;-65
2023/04/02 13:33:12;;;;;;;6.67;6.27;;;8.40;99.90;;;;;;5051558;28;20224;-65
2023/04/02 13:35:38;;;;;;;6.77;6.37;;;8.40;99.90;;;;;;5051479;28;20252;-65
2023/04/02 13:38:04;;;;;;;6.03;5.73;;;8.40;99.90;;;;;;5049860;28;20210;-65
2023/04/02 13:40:32;;;;;;;6.87;6.43;;;8.50;99.90;;;;;;5050840;28;20544;-65